Time;durP1;ratioP1;P1;durP2;ratioP2;P2;SDS_P1;SDS_P2;PMS_P1;PMS_P2;Temp;Humidity;BMP_temperature;BMP_pressure;BME280_temperature;BME280_humidity;BME280_pressure;Samples;Min_cycle;Max_cycle;Signal;HPM_P1;HPM_P2
2023/10/08 00:00:49;;;;;;;6.00;1.40;;;;;;;14.64;65.07;99389.95;105560;1257;59766;-55
2023/10/08 00:03:20;;;;;;;5.80;1.30;;;;;;;14.62;65.14;99389.73;105647;1255;64461;-55
2023/10/08 00:05:47;;;;;;;5.70;1.40;;;;;;;14.55;65.34;99401.42;105580;1254;62175;-56
2023/10/08 00:08:16;;;;;;;5.00;1.40;;;;;;;14.47;65.50;99405.48;105669;1260;63845;-55
2023/10/08 00:10:44;;;;;;;6.90;1.20;;;;;;;14.39;65.90;99402.48;105630;1259;59653;-56
2023/10/08 00:13:12;;;;;;;6.80;1.60;;;;;;;14.33;66.12;99397.90;105700;1254;59517;-57
2023/10/08 00:15:51;;;;;;;4.80;1.10;;;;;;;14.31;66.14;99391.15;105859;1260;64902;-57
2023/10/08 00:18:20;;;;;;;5.00;1.30;;;;;;;14.33;66.14;99382.52;105581;1259;61576;-56
2023/10/08 00:20:54;;;;;;;3.80;1.30;;;;;;;14.33;65.96;99386.46;105657;1259;63839;-55
2023/10/08 00:23:22;;;;;;;6.10;1.80;;;;;;;14.29;65.56;99397.25;105411;1257;59612;-56
2023/10/08 00:25:50;;;;;;;5.40;1.60;;;;;;;14.22;65.52;99398.16;105622;1254;59799;-55
2023/10/08 00:28:17;;;;;;;5.80;1.90;;;;;;;14.16;65.33;99396.61;105525;1259;64191;-56
2023/10/08 00:30:44;;;;;;;4.60;1.50;;;;;;;14.12;64.80;99395.39;105627;1255;61642;-56
2023/10/08 00:33:11;;;;;;;5.00;1.40;;;;;;;14.10;64.46;99397.74;105757;1260;62783;-56
2023/10/08 00:35:40;;;;;;;4.70;1.50;;;;;;;14.09;64.59;99396.99;105177;1255;59649;-55
2023/10/08 00:38:14;;;;;;;5.00;1.30;;;;;;;14.04;64.45;99398.73;105784;1256;59643;-55
2023/10/08 00:40:45;;;;;;;6.30;1.50;;;;;;;13.97;64.03;99403.26;105632;1254;64800;-55
2023/10/08 00:43:35;;;;;;;6.40;2.10;;;;;;;13.90;63.59;99409.06;105277;1259;60174;-55
2023/10/08 00:46:18;;;;;;;4.40;1.10;;;;;;;13.87;63.05;99420.21;105912;1260;64026;-54
2023/10/08 00:48:48;;;;;;;6.90;1.50;;;;;;;13.79;61.77;99422.14;105314;1265;59617;-56
2023/10/08 00:51:25;;;;;;;6.60;1.40;;;;;;;13.69;61.28;99419.30;105600;1254;59733;-57
2023/10/08 00:53:58;;;;;;;7.20;1.70;;;;;;;13.58;59.49;99428.23;105354;1267;64455;-55
2023/10/08 00:56:46;;;;;;;5.20;1.40;;;;;;;13.45;58.65;99435.33;105458;1258;61987;-55
2023/10/08 00:59:14;;;;;;;5.50;1.20;;;;;;;13.33;57.47;99445.41;105640;1255;63829;-56
2023/10/08 01:01:59;;;;;;;5.20;1.60;;;;;;;13.21;56.14;99459.78;105678;1257;59784;-56
2023/10/08 01:04:26;;;;;;;5.80;1.40;;;;;;;13.15;55.60;99448.77;105251;1258;59712;-57
2023/10/08 01:07:16;;;;;;;4.60;1.10;;;;;;;13.13;55.52;99446.69;105383;1254;64532;-56
2023/10/08 01:09:47;;;;;;;7.30;1.40;;;;;;;13.07;54.99;99461.66;105510;1259;62285;-55
2023/10/08 01:12:27;;;;;;;4.40;1.10;;;;;;;13.00;54.46;99467.80;105605;1256;63893;-56
2023/10/08 01:14:54;;;;;;;4.10;1.30;;;;;;;12.92;54.51;99472.31;105280;1259;59791;-56
2023/10/08 01:17:25;;;;;;;6.80;1.40;;;;;;;12.81;52.35;99477.67;105408;1260;59744;-56
2023/10/08 01:22:39;;;;;;;5.90;1.20;;;;;;;12.70;52.29;99473.06;105774;1257;61493;-54
2023/10/08 01:25:09;;;;;;;7.20;1.40;;;;;;;12.63;52.95;99471.16;105935;1257;64037;-55
2023/10/08 01:27:37;;;;;;;5.50;1.50;;;;;;;12.56;53.70;99470.48;105765;1258;59730;-56
2023/10/08 01:30:12;;;;;;;4.70;1.60;;;;;;;12.46;54.28;99476.98;106601;1258;59521;-56
2023/10/08 01:32:40;;;;;;;7.10;1.60;;;;;;;12.31;54.97;99478.29;105964;1259;64214;-56
2023/10/08 01:35:22;;;;;;;2.60;0.60;;;;;;;12.19;55.53;99470.17;105824;1257;61632;-56
2023/10/08 01:37:50;;;;;;;4.80;1.30;;;;;;;12.13;55.99;99463.08;105406;1260;64562;-56
2023/10/08 01:40:18;;;;;;;4.70;1.10;;;;;;;12.08;56.12;99461.10;105418;1260;59745;-57
2023/10/08 01:42:45;;;;;;;5.70;1.20;;;;;;;12.01;56.35;99459.67;105570;1254;59760;-58
2023/10/08 01:45:18;;;;;;;5.10;1.50;;;;;;;11.95;56.97;99460.43;105264;1260;62910;-57
2023/10/08 01:47:45;;;;;;;5.00;1.20;;;;;;;11.90;57.51;99460.21;105553;1258;61453;-56
2023/10/08 01:50:21;;;;;;;5.40;1.10;;;;;;;11.82;57.78;99452.55;105553;1258;63994;-55
2023/10/08 01:52:48;;;;;;;3.10;0.60;;;;;;;11.74;58.04;99443.70;105519;1254;59680;-55
2023/10/08 01:55:19;;;;;;;7.60;1.70;;;;;;;11.69;58.14;99444.49;105529;1254;59793;-57
2023/10/08 01:57:46;;;;;;;4.80;1.20;;;;;;;11.63;58.44;99440.01;105536;1260;64398;-56
2023/10/08 02:00:20;;;;;;;6.20;1.50;;;;;;;11.58;58.36;99440.04;105565;1254;61650;-57
2023/10/08 02:02:47;;;;;;;3.20;0.30;;;;;;;11.56;58.16;99436.42;105460;1254;63046;-54
2023/10/08 02:05:15;;;;;;;5.90;1.50;;;;;;;11.58;58.14;99434.73;105563;1259;59547;-56
2023/10/08 02:07:44;;;;;;;4.60;1.00;;;;;;;11.60;58.21;99438.92;105652;1254;59687;-56
2023/10/08 02:10:11;;;;;;;4.40;1.60;;;;;;;11.60;58.27;99440.04;105600;1258;64726;-58
2023/10/08 02:12:38;;;;;;;3.40;0.50;;;;;;;11.58;58.11;99448.00;105752;1259;61773;-55
2023/10/08 02:15:06;;;;;;;4.00;1.10;;;;;;;11.56;58.02;99442.88;105878;1254;64024;-57
2023/10/08 02:17:34;;;;;;;2.30;1.10;;;;;;;11.53;58.19;99450.33;105828;1256;59750;-55
2023/10/08 02:20:05;;;;;;;6.20;1.60;;;;;;;11.50;58.15;99447.27;105381;1254;59647;-55
2023/10/08 02:22:35;;;;;;;4.20;1.40;;;;;;;11.48;58.28;99435.06;105976;1258;64407;-56
2023/10/08 02:25:03;;;;;;;4.70;1.30;;;;;;;11.44;58.37;99429.27;105875;1254;61654;-55
2023/10/08 02:27:32;;;;;;;5.90;1.20;;;;;;;11.40;58.42;99429.47;105286;1256;64018;-56
2023/10/08 02:29:59;;;;;;;2.40;0.50;;;;;;;11.42;58.49;99430.15;105273;1258;59652;-56
2023/10/08 02:32:26;;;;;;;5.40;1.50;;;;;;;11.47;58.47;99430.02;105377;1260;59768;-56
2023/10/08 02:34:53;;;;;;;3.00;0.90;;;;;;;11.51;58.13;99423.17;105295;1258;64376;-56
2023/10/08 02:37:21;;;;;;;5.30;1.40;;;;;;;11.51;58.20;99423.14;105481;1259;62044;-56
2023/10/08 02:39:48;;;;;;;4.90;1.20;;;;;;;11.52;58.41;99432.36;105258;1261;64989;-52
2023/10/08 02:42:16;;;;;;;4.30;0.60;;;;;;;11.51;58.24;99434.77;105517;1254;59517;-58
2023/10/08 02:44:43;;;;;;;4.10;1.30;;;;;;;11.49;57.99;99445.65;105264;1257;59993;-55
2023/10/08 02:47:11;;;;;;;9.00;1.50;;;;;;;11.44;57.75;99442.68;105273;1260;64403;-55
2023/10/08 02:49:43;;;;;;;4.80;1.30;;;;;;;11.40;57.95;99438.27;105813;1254;61795;-55
2023/10/08 02:52:12;;;;;;;5.00;1.30;;;;;;;11.36;57.80;99436.73;105678;1260;64047;-55
2023/10/08 02:54:40;;;;;;;3.60;0.50;;;;;;;11.34;58.12;99433.95;105761;1254;61175;-55
2023/10/08 02:57:15;;;;;;;5.00;1.40;;;;;;;11.37;58.38;99436.68;105947;1257;60445;-56
2023/10/08 02:59:44;;;;;;;5.30;0.70;;;;;;;11.41;58.28;99445.39;105685;1260;65259;-56
2023/10/08 03:02:18;;;;;;;4.60;1.20;;;;;;;11.41;58.07;99451.73;105604;1254;61846;-56
2023/10/08 03:04:47;;;;;;;7.90;1.60;;;;;;;11.39;57.85;99457.73;105447;1260;63941;-56
2023/10/08 03:07:21;;;;;;;5.30;1.20;;;;;;;11.36;57.71;99459.20;105531;1254;60562;-56
2023/10/08 03:09:50;;;;;;;3.50;0.90;;;;;;;11.32;57.77;99455.73;105390;1256;60516;-55
2023/10/08 03:12:18;;;;;;;7.80;1.20;;;;;;;11.30;57.83;99455.62;105530;1254;65298;-55
2023/10/08 03:15:01;;;;;;;5.80;1.30;;;;;;;11.27;57.97;99466.56;105627;1254;62169;-55
2023/10/08 03:17:29;;;;;;;6.10;1.80;;;;;;;11.26;57.97;99463.41;105970;1255;63959;-57
2023/10/08 03:20:27;;;;;;;1.30;0.30;;;;;;;11.27;57.78;99459.02;105449;1259;60476;-55
2023/10/08 03:22:45;;;;;;;3.70;1.00;;;;;;;11.34;57.75;99463.09;105691;1260;61009;-57
2023/10/08 03:25:16;;;;;;;4.30;1.30;;;;;;;11.39;57.71;99461.63;105679;1254;64900;-56
2023/10/08 03:27:43;;;;;;;5.80;1.40;;;;;;;11.38;57.56;99465.86;105322;1260;61561;-55
2023/10/08 03:30:14;;;;;;;6.70;1.10;;;;;;;11.35;57.36;99473.02;105647;1254;63963;-56
2023/10/08 03:32:44;;;;;;;6.70;1.40;;;;;;;11.32;57.49;99474.83;105727;1254;60477;-56
2023/10/08 03:35:12;;;;;;;1.50;0.60;;;;;;;11.31;57.62;99476.70;105638;1254;60565;-58
2023/10/08 03:37:46;;;;;;;4.60;1.20;;;;;;;11.30;57.61;99471.25;105742;1254;63814;-56
2023/10/08 03:43:19;;;;;;;1.50;0.40;;;;;;;11.24;57.19;99471.27;105011;1266;73054;-56
2023/10/08 03:45:53;;;;;;;5.30;1.20;;;;;;;11.20;57.26;99469.05;105443;1254;60458;-54
2023/10/08 03:48:22;;;;;;;1.70;0.60;;;;;;;11.17;57.15;99467.23;105451;1255;60464;-54
2023/10/08 03:50:56;;;;;;;4.40;1.50;;;;;;;11.19;57.07;99464.23;105447;1254;63749;-55
2023/10/08 03:53:24;;;;;;;3.40;1.30;;;;;;;11.23;57.00;99467.33;105399;1258;61513;-55
2023/10/08 03:55:52;;;;;;;2.40;0.30;;;;;;;11.23;57.07;99465.09;105414;1258;64052;-55
2023/10/08 03:58:29;;;;;;;6.90;1.40;;;;;;;11.22;57.16;99465.84;105459;1254;60767;-55
2023/10/08 04:01:42;;;;;;;4.90;1.20;;;;;;;11.22;57.06;99471.97;105292;1254;60383;-55
2023/10/08 04:03:58;;;;;;;0.80;0.30;;;;;;;11.21;56.97;99475.90;105195;1259;64926;-55
2023/10/08 04:06:38;;;;;;;6.30;1.30;;;;;;;11.20;57.02;99481.02;105281;1256;61672;-55
2023/10/08 04:11:35;;;;;;;1.40;0.40;;;;;;;11.20;56.87;99485.59;105825;1255;60329;-55
2023/10/08 04:14:02;;;;;;;6.00;1.40;;;;;;;11.16;56.92;99488.55;106041;1254;60559;-55
2023/10/08 04:16:30;;;;;;;1.60;0.70;;;;;;;11.13;56.70;99490.24;105299;1258;65078;-55
2023/10/08 04:18:57;;;;;;;6.80;1.20;;;;;;;11.14;56.47;99497.66;105240;1256;61826;-54
2023/10/08 04:21:27;;;;;;;2.30;0.50;;;;;;;11.16;56.17;99507.29;105357;1260;64458;-55
2023/10/08 04:23:57;;;;;;;5.10;1.80;;;;;;;11.15;55.83;99506.02;105321;1254;60545;-55
2023/10/08 04:26:24;;;;;;;6.20;1.20;;;;;;;11.13;55.75;99511.52;105346;1257;60612;-55
2023/10/08 04:28:57;;;;;;;6.20;0.70;;;;;;;11.11;55.54;99513.81;105408;1259;65685;-55
2023/10/08 04:31:28;;;;;;;5.00;1.20;;;;;;;11.11;55.46;99512.36;105280;1259;61667;-58
2023/10/08 04:33:55;;;;;;;1.40;0.30;;;;;;;11.11;55.31;99512.20;105301;1254;63756;-56
2023/10/08 04:36:22;;;;;;;5.50;1.40;;;;;;;11.09;55.04;99516.59;105352;1254;60436;-56
2023/10/08 04:38:50;;;;;;;4.30;1.10;;;;;;;11.08;54.97;99521.29;105223;1256;60558;-57
2023/10/08 04:41:19;;;;;;;1.90;0.30;;;;;;;11.07;54.79;99533.27;105427;1260;74311;-56
2023/10/08 04:43:49;;;;;;;3.60;1.00;;;;;;;11.06;54.71;99541.84;105262;1259;60360;-55
2023/10/08 04:46:46;;;;;;;3.00;0.30;;;;;;;11.04;54.57;99545.14;105229;1260;64311;-54
2023/10/08 04:52:13;;;;;;;9.00;1.30;;;;;;;11.01;54.63;99548.06;105231;1254;60583;-56
2023/10/08 04:54:46;;;;;;;2.10;0.30;;;;;;;11.02;54.13;99549.41;105245;1260;65071;-56
2023/10/08 04:57:15;;;;;;;3.00;0.60;;;;;;;11.01;53.57;99549.34;105220;1254;61446;-56
2023/10/08 04:59:43;;;;;;;1.80;0.50;;;;;;;10.99;53.14;99548.13;105726;1259;63728;-56
2023/10/08 05:23:22;;;;;;;4.80;1.20;;;;;;;10.93;50.18;99541.75;105867;1259;61465;-56
2023/10/08 05:26:08;;;;;;;1.90;0.10;;;;;;;10.96;49.79;99554.88;105394;1254;63909;-56
2023/10/08 05:28:46;;;;;;;4.70;0.60;;;;;;;10.98;49.77;99567.86;105804;1254;59285;-55
2023/10/08 05:34:14;;;;;;;5.40;1.70;;;;;;;11.03;49.90;99585.79;105676;1254;65184;-55
2023/10/08 05:42:19;;;;;;;2.30;0.60;;;;;;;11.12;49.35;99589.83;105239;1258;60955;-55
2023/10/08 05:45:13;;;;;;;3.50;1.10;;;;;;;11.17;49.37;99599.88;105556;1254;60490;-55
2023/10/08 05:52:53;;;;;;;5.00;1.00;;;;;;;11.31;47.38;99604.23;105445;1254;73328;-55
2023/10/08 05:55:26;;;;;;;6.70;0.50;;;;;;;11.33;46.86;99609.09;105404;1254;60459;-55
2023/10/08 06:03:32;;;;;;;3.40;0.90;;;;;;;11.42;44.29;99601.81;105700;1258;61818;-58
2023/10/08 06:07:11;;;;;;;4.00;1.00;;;;;;;11.43;42.80;99609.61;105274;1258;64154;-53
2023/10/08 06:14:36;;;;;;;3.40;1.00;;;;;;;11.50;42.29;99611.34;105836;1259;73642;-56
2023/10/08 06:19:52;;;;;;;1.70;0.50;;;;;;;11.58;42.80;99610.95;105461;1256;63750;-54
2023/10/08 06:22:23;;;;;;;8.10;1.00;;;;;;;11.61;42.78;99598.20;105434;1254;60558;-59
2023/10/08 06:25:15;;;;;;;2.90;0.30;;;;;;;11.63;42.90;99602.36;105335;1255;60480;-54
2023/10/08 06:27:37;;;;;;;3.10;0.80;;;;;;;11.65;42.55;99616.63;105764;1259;65333;-54
2023/10/08 06:30:05;;;;;;;4.40;0.70;;;;;;;11.65;42.37;99625.71;105753;1254;61960;-55
2023/10/08 06:32:32;;;;;;;3.50;0.40;;;;;;;11.65;42.43;99624.84;105938;1258;62867;-55
2023/10/08 06:35:02;;;;;;;6.20;1.10;;;;;;;11.63;42.83;99627.65;105928;1258;60447;-55
2023/10/08 06:37:29;;;;;;;5.90;1.10;;;;;;;11.62;42.82;99638.83;105299;1258;60474;-56
2023/10/08 06:39:57;;;;;;;2.30;1.60;;;;;;;11.62;42.78;99639.16;106101;1258;65298;-56
2023/10/08 06:42:27;;;;;;;3.40;0.80;;;;;;;11.63;43.08;99634.50;105379;1254;61499;-56
2023/10/08 06:44:58;;;;;;;2.40;0.40;;;;;;;11.64;43.16;99639.71;106060;1258;63919;-56
2023/10/08 06:47:25;;;;;;;3.90;1.00;;;;;;;11.63;43.11;99651.34;105389;1254;60562;-56
2023/10/08 06:49:51;;;;;;;1.30;0.40;;;;;;;11.62;43.39;99653.55;105341;1254;60464;-56
2023/10/08 06:52:19;;;;;;;4.90;0.80;;;;;;;11.59;43.44;99661.06;105484;1258;65249;-55
2023/10/08 06:54:47;;;;;;;5.20;1.20;;;;;;;11.56;43.45;99661.06;105476;1254;64524;-56
2023/10/08 06:57:14;;;;;;;4.00;0.80;;;;;;;11.55;44.01;99669.73;105537;1258;64051;-55
2023/10/08 06:59:42;;;;;;;2.50;0.20;;;;;;;11.57;43.83;99680.93;105645;1258;60576;-56
2023/10/08 07:02:10;;;;;;;3.80;1.00;;;;;;;11.58;43.75;99681.73;105677;1254;60480;-57
2023/10/08 07:04:39;;;;;;;1.80;0.40;;;;;;;11.59;43.90;99676.91;105309;1256;65288;-58
2023/10/08 07:07:09;;;;;;;3.80;0.90;;;;;;;11.58;43.94;99671.70;105769;1254;61455;-55
2023/10/08 07:09:36;;;;;;;4.20;0.30;;;;;;;11.59;44.18;99673.08;105227;1258;63840;-57
2023/10/08 07:12:06;;;;;;;3.60;0.90;;;;;;;11.62;43.97;99677.48;105907;1254;60473;-56
2023/10/08 07:14:33;;;;;;;3.20;0.60;;;;;;;11.64;43.62;99680.78;105948;1254;60496;-57
2023/10/08 07:17:00;;;;;;;3.60;0.90;;;;;;;11.63;44.05;99684.05;105272;1258;65537;-55
2023/10/08 07:19:37;;;;;;;1.40;0.20;;;;;;;11.64;44.33;99690.86;105295;1259;61582;-56
2023/10/08 07:22:17;;;;;;;5.30;1.10;;;;;;;11.65;44.19;99693.17;105921;1257;64542;-55
2023/10/08 07:24:50;;;;;;;2.20;0.80;;;;;;;11.71;44.26;99688.94;105528;1254;60519;-54
2023/10/08 07:27:21;;;;;;;4.80;1.40;;;;;;;11.77;43.21;99684.16;105474;1255;60430;-55
2023/10/08 07:29:49;;;;;;;3.70;0.90;;;;;;;11.81;42.80;99684.86;105504;1254;63807;-55
2023/10/08 07:32:18;;;;;;;5.10;1.30;;;;;;;11.80;42.20;99681.20;105539;1255;61694;-56
2023/10/08 07:34:45;;;;;;;6.80;1.00;;;;;;;11.80;42.03;99686.86;106382;1258;63939;-55
2023/10/08 07:37:14;;;;;;;1.70;0.30;;;;;;;11.78;42.33;99696.65;105675;1254;62235;-55
2023/10/08 07:39:46;;;;;;;2.80;0.80;;;;;;;11.74;42.75;99698.69;105798;1254;60467;-54
2023/10/08 07:42:13;;;;;;;3.80;0.70;;;;;;;11.71;42.41;99698.75;105697;1259;65294;-55
2023/10/08 07:44:40;;;;;;;1.90;0.30;;;;;;;11.66;42.44;99703.63;105724;1254;61501;-54
2023/10/08 07:47:14;;;;;;;5.50;0.80;;;;;;;11.66;42.40;99709.73;105975;1254;63813;-55
2023/10/08 07:49:44;;;;;;;3.10;0.50;;;;;;;11.68;42.48;99714.14;105678;1254;60596;-55
2023/10/08 07:52:15;;;;;;;2.90;1.00;;;;;;;11.62;41.47;99718.91;105852;1254;60435;-57
2023/10/08 07:54:42;;;;;;;3.60;1.00;;;;;;;11.58;41.77;99711.21;105247;1258;74201;-55
2023/10/08 07:57:08;;;;;;;2.90;0.70;;;;;;;11.59;42.48;99713.40;105268;1259;61859;-55
2023/10/08 07:59:41;;;;;;;4.10;0.80;;;;;;;11.63;42.24;99710.78;105299;1259;64024;-56
2023/10/08 08:02:12;;;;;;;1.30;0.20;;;;;;;11.66;41.82;99718.34;105680;1258;60559;-55
2023/10/08 08:04:45;;;;;;;3.60;1.00;;;;;;;11.67;42.08;99724.64;105216;1254;60474;-55
2023/10/08 08:07:18;;;;;;;1.20;0.20;;;;;;;11.68;41.79;99725.21;105639;1258;65502;-55
2023/10/08 08:09:58;;;;;;;4.10;1.00;;;;;;;11.67;41.73;99712.81;105595;1254;61493;-54
2023/10/08 08:12:25;;;;;;;1.10;0.40;;;;;;;11.69;41.73;99712.86;105240;1259;63812;-55
2023/10/08 08:14:52;;;;;;;4.80;1.10;;;;;;;11.73;42.19;99727.44;105424;1259;60375;-56
2023/10/08 08:17:22;;;;;;;3.50;1.00;;;;;;;11.74;42.41;99716.58;105563;1258;60493;-55
2023/10/08 08:19:50;;;;;;;0.80;0.20;;;;;;;11.74;42.53;99713.62;105320;1259;65119;-56
2023/10/08 08:22:21;;;;;;;2.50;0.80;;;;;;;11.77;42.56;99716.29;105682;1254;61464;-57
2023/10/08 08:24:53;;;;;;;4.80;1.10;;;;;;;11.88;42.26;99711.61;105528;1258;64013;-56
2023/10/08 08:27:24;;;;;;;1.50;0.40;;;;;;;11.96;42.26;99714.52;105423;1255;60444;-55
2023/10/08 08:29:55;;;;;;;6.90;1.20;;;;;;;11.99;42.66;99714.92;105289;1254;60585;-54
2023/10/08 08:32:23;;;;;;;3.90;0.80;;;;;;;12.02;42.57;99714.59;105365;1254;65041;-56
2023/10/08 08:34:53;;;;;;;4.50;0.90;;;;;;;12.01;41.98;99707.20;105461;1254;61690;-56
2023/10/08 08:37:25;;;;;;;5.20;1.10;;;;;;;12.00;42.11;99717.46;105260;1254;63908;-56
2023/10/08 08:39:52;;;;;;;4.10;1.10;;;;;;;11.99;41.99;99713.14;105256;1254;60528;-55
2023/10/08 08:42:26;;;;;;;2.00;0.30;;;;;;;11.99;42.35;99717.05;105240;1256;62136;-54
2023/10/08 08:44:53;;;;;;;5.40;1.10;;;;;;;11.97;42.03;99723.92;105328;1258;65473;-55
2023/10/08 08:47:24;;;;;;;0.60;0.10;;;;;;;12.00;42.11;99727.48;105399;1254;61466;-55
2023/10/08 08:49:55;;;;;;;6.60;0.70;;;;;;;12.07;42.21;99724.91;105215;1256;63879;-54
2023/10/08 08:52:22;;;;;;;8.70;1.30;;;;;;;12.17;41.65;99712.63;105181;1255;60333;-55
2023/10/08 08:54:49;;;;;;;4.10;0.70;;;;;;;12.27;41.24;99709.92;105446;1254;60560;-54
2023/10/08 08:57:16;;;;;;;4.30;0.90;;;;;;;12.32;40.78;99711.73;105234;1258;65468;-55
2023/10/08 08:59:53;;;;;;;6.40;1.30;;;;;;;12.29;41.01;99704.44;105541;1255;61458;-55
2023/10/08 09:02:20;;;;;;;4.10;0.60;;;;;;;12.23;41.04;99696.56;105404;1256;63826;-53
2023/10/08 09:04:48;;;;;;;5.20;0.90;;;;;;;12.24;41.20;99702.51;105460;1254;60427;-54
2023/10/08 09:07:21;;;;;;;3.70;0.90;;;;;;;12.26;40.81;99708.63;105613;1256;59274;-54
2023/10/08 09:09:49;;;;;;;2.70;0.90;;;;;;;12.25;41.06;99710.61;105425;1255;64996;-53
2023/10/08 09:12:17;;;;;;;4.00;0.70;;;;;;;12.28;41.18;99715.14;105560;1254;62163;-54
2023/10/08 09:14:46;;;;;;;4.00;0.50;;;;;;;12.33;39.47;99720.40;105473;1258;64347;-54
2023/10/08 09:17:15;;;;;;;4.30;0.90;;;;;;;12.38;39.75;99713.23;105621;1254;61873;-56
2023/10/08 09:19:42;;;;;;;2.20;0.60;;;;;;;12.42;40.48;99719.66;105649;1254;60460;-55
2023/10/08 09:22:11;;;;;;;2.50;0.40;;;;;;;12.47;40.67;99717.69;105768;1258;64925;-54
2023/10/08 09:24:39;;;;;;;4.60;1.10;;;;;;;12.50;40.72;99713.29;105264;1254;61395;-55
2023/10/08 09:27:06;;;;;;;3.40;0.80;;;;;;;12.56;40.89;99722.42;105318;1258;64120;-54
2023/10/08 09:29:39;;;;;;;2.90;0.70;;;;;;;12.56;39.91;99717.44;105875;1254;60457;-55
2023/10/08 09:32:11;;;;;;;4.20;0.90;;;;;;;12.54;39.36;99713.65;105825;1254;60445;-56
2023/10/08 09:34:38;;;;;;;0.70;0.00;;;;;;;12.48;39.13;99712.85;105921;1254;63816;-54
2023/10/08 09:37:04;;;;;;;2.70;0.60;;;;;;;12.42;38.62;99711.68;105250;1258;60443;-54
2023/10/08 09:39:34;;;;;;;4.00;0.80;;;;;;;12.40;39.20;99709.86;105844;1254;63804;-54
2023/10/08 09:42:11;;;;;;;2.70;0.60;;;;;;;12.44;39.05;99705.36;105896;1254;61696;-55
2023/10/08 09:44:39;;;;;;;3.50;0.60;;;;;;;12.48;38.97;99708.77;105756;1256;61968;-56
2023/10/08 09:47:07;;;;;;;0.50;0.20;;;;;;;12.50;38.79;99700.77;105288;1254;64009;-60
2023/10/08 09:49:47;;;;;;;3.00;0.80;;;;;;;12.55;38.48;99702.95;105285;1254;61510;-62
2023/10/08 09:52:16;;;;;;;4.20;1.00;;;;;;;12.60;38.34;99709.46;105646;1254;64125;-61
2023/10/08 09:54:44;;;;;;;4.30;1.10;;;;;;;12.64;38.12;99699.82;105619;1254;60414;-60
2023/10/08 09:57:12;;;;;;;3.50;0.90;;;;;;;12.67;37.41;99696.71;105197;1256;60337;-59
2023/10/08 09:59:40;;;;;;;1.90;0.60;;;;;;;12.70;37.54;99697.23;105704;1256;65183;-60
2023/10/08 10:02:10;;;;;;;4.80;1.00;;;;;;;12.75;37.51;99703.27;105757;1254;61482;-61
2023/10/08 10:04:43;;;;;;;3.20;0.60;;;;;;;12.76;37.08;99703.67;105823;1256;64004;-60
2023/10/08 10:07:16;;;;;;;3.60;0.90;;;;;;;12.74;35.97;99706.47;105754;1255;60448;-61
2023/10/08 10:09:45;;;;;;;5.10;0.90;;;;;;;12.71;36.20;99700.11;105546;1256;60436;-61
2023/10/08 10:12:11;;;;;;;2.20;0.60;;;;;;;12.74;36.39;99698.79;105742;1254;64191;-58
2023/10/08 10:14:42;;;;;;;3.60;0.70;;;;;;;12.79;35.79;99698.09;105680;1254;61601;-59
2023/10/08 10:17:18;;;;;;;8.40;0.90;;;;;;;12.85;35.50;99702.23;105719;1254;64025;-57
2023/10/08 10:20:10;;;;;;;4.40;0.60;;;;;;;12.89;35.10;99700.07;105766;1254;60663;-58
2023/10/08 10:22:37;;;;;;;6.60;1.00;;;;;;;12.93;34.92;99706.42;105789;1254;60477;-59
2023/10/08 10:25:16;;;;;;;6.60;1.00;;;;;;;12.95;34.76;99706.88;105803;1254;65471;-59
2023/10/08 10:28:13;;;;;;;3.60;0.80;;;;;;;12.99;34.71;99706.27;105702;1255;61469;-59
2023/10/08 10:30:41;;;;;;;2.80;1.00;;;;;;;13.10;34.28;99704.33;105144;1254;64557;-60
2023/10/08 10:33:08;;;;;;;4.40;0.80;;;;;;;13.23;34.43;99703.35;105775;1254;61682;-57
2023/10/08 10:35:37;;;;;;;7.20;1.00;;;;;;;13.34;34.73;99694.83;105295;1258;60372;-58
2023/10/08 10:38:06;;;;;;;3.40;0.90;;;;;;;13.36;33.96;99690.64;105955;1255;65320;-60
2023/10/08 10:40:39;;;;;;;4.10;1.00;;;;;;;13.34;33.35;99700.88;105927;1254;61494;-59
2023/10/08 10:57:03;;;;;;;4.30;1.00;;;;;;;13.21;32.28;99707.96;102747;1285;605607;-61
2023/10/08 10:59:36;;;;;;;1.90;0.70;;;;;;;13.55;31.17;99706.98;105022;1266;127730;-59
2023/10/08 11:02:30;;;;;;;3.20;0.70;;;;;;;13.60;30.63;99702.59;105080;1265;59371;-60
2023/10/08 11:05:08;;;;;;;5.40;0.70;;;;;;;13.64;29.81;99699.35;104474;1270;63443;-59
2023/10/08 11:07:36;;;;;;;4.20;0.90;;;;;;;13.71;30.43;99695.04;105026;1268;61640;-62
2023/10/08 11:10:09;;;;;;;4.00;1.00;;;;;;;13.77;29.76;99695.77;105025;1266;64964;-57
2023/10/08 11:12:46;;;;;;;3.20;1.00;;;;;;;13.85;30.33;99693.45;104949;1267;59704;-59
2023/10/08 11:15:17;;;;;;;4.90;0.90;;;;;;;13.95;30.61;99690.19;104816;1266;59401;-57
2023/10/08 11:17:44;;;;;;;3.60;0.60;;;;;;;14.03;30.94;99690.20;104394;1266;63293;-58
2023/10/08 11:20:25;;;;;;;3.90;0.90;;;;;;;14.09;30.92;99688.99;104833;1266;61645;-58
2023/10/08 11:22:53;;;;;;;4.00;0.90;;;;;;;14.15;30.70;99696.23;104611;1265;63726;-59
2023/10/08 11:25:27;;;;;;;3.80;1.00;;;;;;;14.10;29.04;99705.10;104592;1266;59659;-60
2023/10/08 11:28:01;;;;;;;4.20;0.60;;;;;;;14.00;28.52;99701.44;104761;1264;59647;-59
2023/10/08 11:30:31;;;;;;;3.10;0.70;;;;;;;13.91;28.96;99699.14;104604;1266;64240;-57
2023/10/08 11:32:59;;;;;;;4.70;1.10;;;;;;;13.83;29.15;99703.23;104569;1265;61681;-58
2023/10/08 11:35:29;;;;;;;2.20;0.50;;;;;;;13.80;29.25;99709.86;104601;1270;64130;-60
2023/10/08 11:38:00;;;;;;;2.40;0.60;;;;;;;13.83;28.84;99709.60;104533;1265;59680;-58
2023/10/08 11:40:28;;;;;;;3.60;0.60;;;;;;;13.84;28.81;99701.83;104561;1266;59714;-60
2023/10/08 11:42:58;;;;;;;2.20;0.60;;;;;;;13.89;28.40;99696.26;104482;1269;64222;-59
2023/10/08 11:45:26;;;;;;;3.20;0.60;;;;;;;13.96;28.64;99695.20;104488;1265;62059;-60
2023/10/08 11:47:57;;;;;;;4.50;0.60;;;;;;;14.02;28.71;99702.45;104509;1271;62462;-58
2023/10/08 11:50:30;;;;;;;2.70;0.60;;;;;;;14.08;27.79;99699.94;104479;1265;59645;-60
2023/10/08 11:53:02;;;;;;;3.70;0.70;;;;;;;14.10;27.22;99696.84;104587;1265;59699;-62
2023/10/08 11:55:34;;;;;;;3.00;0.60;;;;;;;14.11;27.43;99696.25;104508;1271;64350;-58
2023/10/08 11:58:09;;;;;;;3.70;0.70;;;;;;;14.12;27.21;99696.48;104456;1266;61550;-60
2023/10/08 12:00:52;;;;;;;2.60;0.60;;;;;;;14.13;27.33;99695.62;105010;1266;64096;-60
2023/10/08 12:03:18;;;;;;;5.80;0.80;;;;;;;14.20;27.27;99691.59;104687;1266;59743;-58
2023/10/08 12:05:48;;;;;;;3.30;0.70;;;;;;;14.23;27.41;99694.18;104447;1271;59639;-57
2023/10/08 12:08:18;;;;;;;4.10;0.80;;;;;;;14.30;27.53;99691.41;104669;1270;64256;-58
2023/10/08 12:10:49;;;;;;;3.10;0.70;;;;;;;14.36;27.15;99681.59;104727;1266;61427;-58
2023/10/08 12:13:18;;;;;;;2.00;0.50;;;;;;;14.45;27.32;99685.77;104722;1265;63753;-60
2023/10/08 12:15:47;;;;;;;3.20;0.50;;;;;;;14.54;27.14;99697.82;104692;1265;59658;-60
2023/10/08 12:18:24;;;;;;;3.10;0.70;;;;;;;14.68;26.79;99688.23;104847;1266;59755;-63
2023/10/08 12:20:52;;;;;;;3.30;0.70;;;;;;;14.81;27.02;99686.48;104571;1270;64214;-60
2023/10/08 12:23:25;;;;;;;2.70;0.60;;;;;;;14.96;27.26;99685.11;104677;1270;60449;-60
2023/10/08 12:25:56;;;;;;;5.60;0.80;;;;;;;15.13;26.33;99683.47;104611;1266;64557;-59
2023/10/08 12:28:24;;;;;;;2.40;0.60;;;;;;;15.24;26.45;99670.65;104584;1266;60129;-62
2023/10/08 12:30:55;;;;;;;1.90;0.40;;;;;;;15.30;26.36;99668.54;105193;1259;59757;-60
2023/10/08 12:33:24;;;;;;;4.20;0.60;;;;;;;15.33;25.64;99667.15;105223;1262;65769;-59
2023/10/08 12:35:55;;;;;;;3.20;0.50;;;;;;;15.34;24.58;99661.75;105121;1259;61684;-59
2023/10/08 12:38:22;;;;;;;2.90;0.70;;;;;;;15.34;24.64;99669.94;105393;1258;63913;-59
2023/10/08 12:40:55;;;;;;;6.30;0.60;;;;;;;15.32;23.96;99671.23;105433;1254;59852;-60
2023/10/08 12:43:26;;;;;;;3.10;0.70;;;;;;;15.24;23.72;99680.92;105418;1254;59763;-61
2023/10/08 12:45:54;;;;;;;1.80;0.40;;;;;;;15.23;24.00;99682.24;105339;1259;73479;-58
2023/10/08 12:48:22;;;;;;;2.40;0.50;;;;;;;15.65;23.49;99673.84;105482;1256;70594;-58
2023/10/08 12:50:53;;;;;;;4.60;0.80;;;;;;;16.27;23.13;99674.21;105543;1258;72450;-59
2023/10/08 12:53:26;;;;;;;2.60;0.60;;;;;;;17.19;21.90;99675.10;105378;1256;61533;-58
2023/10/08 12:55:54;;;;;;;3.30;0.70;;;;;;;17.79;21.32;99675.11;105358;1258;59958;-59